sensor_id;sensor_type;location;lat;lon;timestamp;temperature;humidity
15343;DHT22;7771;48.478;8.936;2023-02-01T00:02:12;5.90;99.90
15343;DHT22;7771;48.478;8.936;2023-02-01T00:04:40;5.90;99.90
15343;DHT22;7771;48.478;8.936;2023-02-01T00:07:07;5.90;99.90
15343;DHT22;7771;48.478;8.936;2023-02-01T00:09:34;5.90;99.90
15343;DHT22;7771;48.478;8.936;2023-02-01T00:12:01;5.80;99.90
15343;DHT22;7771;48.478;8.936;2023-02-01T00:14:29;5.90;99.90
15343;DHT22;7771;48.478;8.936;2023-02-01T00:16:56;5.90;99.90
15343;DHT22;7771;48.478;8.936;2023-02-01T00:19:23;5.80;99.90
15343;DHT22;7771;48.478;8.936;2023-02-01T00:21:51;5.80;99.90
15343;DHT22;7771;48.478;8.936;2023-02-01T00:24:18;5.80;99.90
15343;DHT22;7771;48.478;8.936;2023-02-01T00:26:46;5.90;99.90
15343;DHT22;7771;48.478;8.936;2023-02-01T00:29:13;5.90;99.90
15343;DHT22;7771;48.478;8.936;2023-02-01T00:31:38;5.90;99.90
15343;DHT22;7771;48.478;8.936;2023-02-01T00:34:06;5.90;99.90
15343;DHT22;7771;48.478;8.936;2023-02-01T00:36:33;5.90;99.90
15343;DHT22;7771;48.478;8.936;2023-02-01T00:39:01;5.90;99.90
15343;DHT22;7771;48.478;8.936;2023-02-01T00:41:27;5.90;99.90
15343;DHT22;7771;48.478;8.936;2023-02-01T00:43:54;5.90;99.90
15343;DHT22;7771;48.478;8.936;2023-02-01T00:46:20;5.90;99.90
15343;DHT22;7771;48.478;8.936;2023-02-01T00:48:48;5.90;99.90
15343;DHT22;7771;48.478;8.936;2023-02-01T00:51:16;5.90;99.90
15343;DHT22;7771;48.478;8.936;2023-02-01T00:53:41;5.90;99.90
15343;DHT22;7771;48.478;8.936;2023-02-01T00:56:08;5.90;99.90
15343;DHT22;7771;48.478;8.936;2023-02-01T00:58:35;5.90;99.90
15343;DHT22;7771;48.478;8.936;2023-02-01T01:01:06;5.90;99.90
15343;DHT22;7771;48.478;8.936;2023-02-01T01:03:33;5.90;99.90
15343;DHT22;7771;48.478;8.936;2023-02-01T01:06:02;5.90;99.90
15343;DHT22;7771;48.478;8.936;2023-02-01T01:08:28;5.90;99.90
15343;DHT22;7771;48.478;8.936;2023-02-01T01:10:55;5.90;99.90
15343;DHT22;7771;48.478;8.936;2023-02-01T01:13:22;5.90;99.90
15343;DHT22;7771;48.478;8.936;2023-02-01T01:15:48;5.90;99.90
15343;DHT22;7771;48.478;8.936;2023-02-01T01:18:16;5.90;99.90
15343;DHT22;7771;48.478;8.936;2023-02-01T01:20:43;5.90;99.90
15343;DHT22;7771;48.478;8.936;2023-02-01T01:23:10;5.90;99.90
15343;DHT22;7771;48.478;8.936;2023-02-01T01:25:38;5.90;99.90
15343;DHT22;7771;48.478;8.936;2023-02-01T01:28:04;5.90;99.90
15343;DHT22;7771;48.478;8.936;2023-02-01T01:30:30;5.90;99.90
15343;DHT22;7771;48.478;8.936;2023-02-01T01:32:58;5.90;99.90
15343;DHT22;7771;48.478;8.936;2023-02-01T01:35:24;5.90;99.90
15343;DHT22;7771;48.478;8.936;2023-02-01T01:37:51;5.90;99.90
15343;DHT22;7771;48.478;8.936;2023-02-01T01:40:18;5.90;99.90
15343;DHT22;7771;48.478;8.936;2023-02-01T01:42:45;5.90;99.90
15343;DHT22;7771;48.478;8.936;2023-02-01T01:45:22;5.90;99.90
15343;DHT22;7771;48.478;8.936;2023-02-01T01:47:50;5.90;99.90
15343;DHT22;7771;48.478;8.936;2023-02-01T01:50:16;5.90;99.90
15343;DHT22;7771;48.478;8.936;2023-02-01T01:52:42;5.90;99.90
15343;DHT22;7771;48.478;8.936;2023-02-01T01:55:10;5.90;99.90
15343;DHT22;7771;48.478;8.936;2023-02-01T01:57:37;5.90;99.90
15343;DHT22;7771;48.478;8.936;2023-02-01T02:00:05;5.90;99.90
15343;DHT22;7771;48.478;8.936;2023-02-01T02:02:30;5.90;99.90
15343;DHT22;7771;48.478;8.936;2023-02-01T02:04:57;5.90;99.90
15343;DHT22;7771;48.478;8.936;2023-02-01T02:07:26;6.00;99.90
15343;DHT22;7771;48.478;8.936;2023-02-01T02:09:51;6.00;99.90
15343;DHT22;7771;48.478;8.936;2023-02-01T02:12:18;5.90;99.90
15343;DHT22;7771;48.478;8.936;2023-02-01T02:14:46;6.00;99.90
15343;DHT22;7771;48.478;8.936;2023-02-01T02:17:36;6.00;99.90
15343;DHT22;7771;48.478;8.936;2023-02-01T02:24:25;5.90;99.90
15343;DHT22;7771;48.478;8.936;2023-02-01T02:26:24;5.90;99.90
15343;DHT22;7771;48.478;8.936;2023-02-01T02:29:15;5.90;99.90
15343;DHT22;7771;48.478;8.936;2023-02-01T02:34:42;5.90;99.90
15343;DHT22;7771;48.478;8.936;2023-02-01T02:37:11;5.90;99.90
15343;DHT22;7771;48.478;8.936;2023-02-01T02:39:53;6.00;99.90
15343;DHT22;7771;48.478;8.936;2023-02-01T02:42:22;6.00;99.90
15343;DHT22;7771;48.478;8.936;2023-02-01T02:47:40;5.90;99.90
15343;DHT22;7771;48.478;8.936;2023-02-01T02:50:05;5.90;99.90
15343;DHT22;7771;48.478;8.936;2023-02-01T02:52:36;6.00;99.90
15343;DHT22;7771;48.478;8.936;2023-02-01T02:55:08;6.00;99.90
15343;DHT22;7771;48.478;8.936;2023-02-01T02:57:37;5.90;99.90
15343;DHT22;7771;48.478;8.936;2023-02-01T03:00:10;5.90;99.90
15343;DHT22;7771;48.478;8.936;2023-02-01T03:02:41;5.90;99.90
15343;DHT22;7771;48.478;8.936;2023-02-01T03:05:14;5.90;99.90
15343;DHT22;7771;48.478;8.936;2023-02-01T03:07:46;5.90;99.90
15343;DHT22;7771;48.478;8.936;2023-02-01T03:13:04;5.90;99.90
15343;DHT22;7771;48.478;8.936;2023-02-01T03:15:49;5.90;99.90
15343;DHT22;7771;48.478;8.936;2023-02-01T03:18:14;5.90;99.90
15343;DHT22;7771;48.478;8.936;2023-02-01T03:20:40;5.90;99.90
15343;DHT22;7771;48.478;8.936;2023-02-01T03:23:07;5.90;99.90
15343;DHT22;7771;48.478;8.936;2023-02-01T03:25:33;5.90;99.90
15343;DHT22;7771;48.478;8.936;2023-02-01T03:28:02;5.90;99.90
15343;DHT22;7771;48.478;8.936;2023-02-01T03:30:29;5.90;99.90
15343;DHT22;7771;48.478;8.936;2023-02-01T03:32:56;5.90;99.90
15343;DHT22;7771;48.478;8.936;2023-02-01T03:35:44;5.90;99.90
15343;DHT22;7771;48.478;8.936;2023-02-01T03:38:32;5.90;99.90
15343;DHT22;7771;48.478;8.936;2023-02-01T03:41:24;5.90;99.90
15343;DHT22;7771;48.478;8.936;2023-02-01T03:43:51;5.90;99.90
15343;DHT22;7771;48.478;8.936;2023-02-01T03:46:17;5.90;99.90
15343;DHT22;7771;48.478;8.936;2023-02-01T03:48:43;5.90;99.90
15343;DHT22;7771;48.478;8.936;2023-02-01T03:51:09;5.90;99.90
15343;DHT22;7771;48.478;8.936;2023-02-01T03:53:37;6.00;99.90
15343;DHT22;7771;48.478;8.936;2023-02-01T03:56:04;6.00;99.90
15343;DHT22;7771;48.478;8.936;2023-02-01T03:58:31;6.00;99.90
15343;DHT22;7771;48.478;8.936;2023-02-01T04:00:58;5.90;99.90
15343;DHT22;7771;48.478;8.936;2023-02-01T04:03:24;5.90;99.90
15343;DHT22;7771;48.478;8.936;2023-02-01T04:05:51;5.90;99.90
15343;DHT22;7771;48.478;8.936;2023-02-01T04:08:20;5.90;99.90
15343;DHT22;7771;48.478;8.936;2023-02-01T04:10:46;5.90;99.90
15343;DHT22;7771;48.478;8.936;2023-02-01T04:13:12;5.80;99.90
15343;DHT22;7771;48.478;8.936;2023-02-01T04:15:39;5.80;99.90
15343;DHT22;7771;48.478;8.936;2023-02-01T04:18:06;5.80;99.90
15343;DHT22;7771;48.478;8.936;2023-02-01T04:20:32;5.80;99.90
15343;DHT22;7771;48.478;8.936;2023-02-01T04:22:59;5.90;99.90
15343;DHT22;7771;48.478;8.936;2023-02-01T04:25:25;5.90;99.90
15343;DHT22;7771;48.478;8.936;2023-02-01T04:27:52;6.00;99.90
15343;DHT22;7771;48.478;8.936;2023-02-01T04:30:23;6.00;99.90
15343;DHT22;7771;48.478;8.936;2023-02-01T04:32:50;6.00;99.90
15343;DHT22;7771;48.478;8.936;2023-02-01T04:35:17;5.90;99.90
15343;DHT22;7771;48.478;8.936;2023-02-01T04:37:43;5.90;99.90
15343;DHT22;7771;48.478;8.936;2023-02-01T04:40:11;5.90;99.90
15343;DHT22;7771;48.478;8.936;2023-02-01T04:42:37;5.90;99.90
15343;DHT22;7771;48.478;8.936;2023-02-01T04:45:04;5.90;99.90
15343;DHT22;7771;48.478;8.936;2023-02-01T04:47:31;5.90;99.90
15343;DHT22;7771;48.478;8.936;2023-02-01T04:49:58;5.90;99.90
15343;DHT22;7771;48.478;8.936;2023-02-01T04:52:25;5.90;99.90
15343;DHT22;7771;48.478;8.936;2023-02-01T04:54:52;5.90;99.90
15343;DHT22;7771;48.478;8.936;2023-02-01T04:57:19;5.90;99.90
15343;DHT22;7771;48.478;8.936;2023-02-01T04:59:46;6.00;99.90
15343;DHT22;7771;48.478;8.936;2023-02-01T05:02:12;5.90;99.90
15343;DHT22;7771;48.478;8.936;2023-02-01T05:04:39;6.00;99.90
15343;DHT22;7771;48.478;8.936;2023-02-01T05:07:08;5.90;99.90
15343;DHT22;7771;48.478;8.936;2023-02-01T05:09:34;6.00;99.90
15343;DHT22;7771;48.478;8.936;2023-02-01T05:12:02;6.00;99.90
15343;DHT22;7771;48.478;8.936;2023-02-01T05:14:34;6.00;99.90
15343;DHT22;7771;48.478;8.936;2023-02-01T05:17:00;6.10;99.90
15343;DHT22;7771;48.478;8.936;2023-02-01T05:19:27;6.00;99.90
15343;DHT22;7771;48.478;8.936;2023-02-01T05:21:54;6.00;99.90
15343;DHT22;7771;48.478;8.936;2023-02-01T05:24:21;6.00;99.90
15343;DHT22;7771;48.478;8.936;2023-02-01T05:26:48;6.00;99.90
15343;DHT22;7771;48.478;8.936;2023-02-01T05:29:14;6.00;99.90
15343;DHT22;7771;48.478;8.936;2023-02-01T05:31:40;6.10;99.90
15343;DHT22;7771;48.478;8.936;2023-02-01T05:34:07;6.00;99.90
15343;DHT22;7771;48.478;8.936;2023-02-01T05:36:34;6.00;99.90
15343;DHT22;7771;48.478;8.936;2023-02-01T05:39:00;6.10;99.90
15343;DHT22;7771;48.478;8.936;2023-02-01T05:41:27;6.10;99.90
15343;DHT22;7771;48.478;8.936;2023-02-01T05:43:53;6.10;99.90
15343;DHT22;7771;48.478;8.936;2023-02-01T05:46:20;6.10;99.90
15343;DHT22;7771;48.478;8.936;2023-02-01T05:48:46;6.10;99.90
15343;DHT22;7771;48.478;8.936;2023-02-01T05:51:13;6.10;99.90
15343;DHT22;7771;48.478;8.936;2023-02-01T05:53:40;6.10;99.90
15343;DHT22;7771;48.478;8.936;2023-02-01T05:56:08;6.10;99.90
15343;DHT22;7771;48.478;8.936;2023-02-01T05:58:36;6.10;99.90
15343;DHT22;7771;48.478;8.936;2023-02-01T06:01:03;6.10;99.90
15343;DHT22;7771;48.478;8.936;2023-02-01T06:03:37;6.20;99.90
15343;DHT22;7771;48.478;8.936;2023-02-01T06:06:03;6.20;99.90
15343;DHT22;7771;48.478;8.936;2023-02-01T06:08:31;6.20;99.90
15343;DHT22;7771;48.478;8.936;2023-02-01T06:11:00;6.20;99.90
15343;DHT22;7771;48.478;8.936;2023-02-01T06:13:26;6.20;99.90
15343;DHT22;7771;48.478;8.936;2023-02-01T06:15:53;6.20;99.90
15343;DHT22;7771;48.478;8.936;2023-02-01T06:18:20;6.30;99.90
15343;DHT22;7771;48.478;8.936;2023-02-01T06:20:53;6.30;99.90
15343;DHT22;7771;48.478;8.936;2023-02-01T06:23:20;6.30;99.90
15343;DHT22;7771;48.478;8.936;2023-02-01T06:25:47;6.20;99.90
15343;DHT22;7771;48.478;8.936;2023-02-01T06:28:13;6.20;99.90
15343;DHT22;7771;48.478;8.936;2023-02-01T06:30:40;6.20;99.90
15343;DHT22;7771;48.478;8.936;2023-02-01T06:33:07;6.20;99.90
15343;DHT22;7771;48.478;8.936;2023-02-01T06:35:33;6.20;99.90
15343;DHT22;7771;48.478;8.936;2023-02-01T06:38:01;6.20;99.90
15343;DHT22;7771;48.478;8.936;2023-02-01T06:40:28;6.20;99.90
15343;DHT22;7771;48.478;8.936;2023-02-01T06:42:55;6.40;99.90
15343;DHT22;7771;48.478;8.936;2023-02-01T06:45:24;6.20;99.90
15343;DHT22;7771;48.478;8.936;2023-02-01T06:47:51;6.20;99.90
15343;DHT22;7771;48.478;8.936;2023-02-01T06:50:19;6.20;99.90
15343;DHT22;7771;48.478;8.936;2023-02-01T06:55:13;6.30;99.90
15343;DHT22;7771;48.478;8.936;2023-02-01T06:57:40;6.30;99.90
15343;DHT22;7771;48.478;8.936;2023-02-01T07:00:07;6.40;99.90
15343;DHT22;7771;48.478;8.936;2023-02-01T07:02:34;6.30;99.90
15343;DHT22;7771;48.478;8.936;2023-02-01T07:05:01;6.30;99.90
15343;DHT22;7771;48.478;8.936;2023-02-01T07:07:28;6.30;99.90
15343;DHT22;7771;48.478;8.936;2023-02-01T07:09:56;6.20;99.90
15343;DHT22;7771;48.478;8.936;2023-02-01T07:12:22;6.20;99.90
15343;DHT22;7771;48.478;8.936;2023-02-01T07:14:49;6.20;99.90
15343;DHT22;7771;48.478;8.936;2023-02-01T07:17:17;6.20;99.90
15343;DHT22;7771;48.478;8.936;2023-02-01T07:19:44;6.20;99.90
15343;DHT22;7771;48.478;8.936;2023-02-01T07:22:11;6.20;99.90
15343;DHT22;7771;48.478;8.936;2023-02-01T07:24:38;6.30;99.90
15343;DHT22;7771;48.478;8.936;2023-02-01T07:27:05;6.30;99.90
15343;DHT22;7771;48.478;8.936;2023-02-01T07:29:31;6.20;99.90
15343;DHT22;7771;48.478;8.936;2023-02-01T07:31:58;6.20;99.90
15343;DHT22;7771;48.478;8.936;2023-02-01T07:34:25;6.30;99.90
15343;DHT22;7771;48.478;8.936;2023-02-01T07:36:52;6.20;99.90
15343;DHT22;7771;48.478;8.936;2023-02-01T07:39:18;6.30;99.90
15343;DHT22;7771;48.478;8.936;2023-02-01T07:41:45;6.20;99.90
15343;DHT22;7771;48.478;8.936;2023-02-01T07:44:11;6.20;99.90
15343;DHT22;7771;48.478;8.936;2023-02-01T07:46:38;6.20;99.90
15343;DHT22;7771;48.478;8.936;2023-02-01T07:49:05;6.20;99.90
15343;DHT22;7771;48.478;8.936;2023-02-01T07:51:32;6.30;99.90
15343;DHT22;7771;48.478;8.936;2023-02-01T07:53:58;6.30;99.90
15343;DHT22;7771;48.478;8.936;2023-02-01T07:56:25;6.30;99.90
15343;DHT22;7771;48.478;8.936;2023-02-01T07:58:53;6.30;99.90
15343;DHT22;7771;48.478;8.936;2023-02-01T08:01:20;6.30;99.90
15343;DHT22;7771;48.478;8.936;2023-02-01T08:03:48;6.40;99.90
15343;DHT22;7771;48.478;8.936;2023-02-01T08:06:14;6.40;99.90
15343;DHT22;7771;48.478;8.936;2023-02-01T08:08:41;6.40;99.90
15343;DHT22;7771;48.478;8.936;2023-02-01T08:11:08;6.40;99.90
15343;DHT22;7771;48.478;8.936;2023-02-01T08:13:35;6.40;99.90
15343;DHT22;7771;48.478;8.936;2023-02-01T08:16:03;6.50;99.90
15343;DHT22;7771;48.478;8.936;2023-02-01T08:18:29;6.60;99.90
15343;DHT22;7771;48.478;8.936;2023-02-01T08:20:56;6.60;99.90
15343;DHT22;7771;48.478;8.936;2023-02-01T08:23:22;6.60;99.90
15343;DHT22;7771;48.478;8.936;2023-02-01T08:25:49;6.60;99.90
15343;DHT22;7771;48.478;8.936;2023-02-01T08:28:15;6.60;99.90
15343;DHT22;7771;48.478;8.936;2023-02-01T08:30:42;6.60;99.90
15343;DHT22;7771;48.478;8.936;2023-02-01T08:33:09;6.60;99.90
15343;DHT22;7771;48.478;8.936;2023-02-01T08:35:36;6.60;99.90
15343;DHT22;7771;48.478;8.936;2023-02-01T08:38:03;6.60;99.90
15343;DHT22;7771;48.478;8.936;2023-02-01T08:40:31;6.70;99.90
15343;DHT22;7771;48.478;8.936;2023-02-01T08:42:57;6.80;99.90
15343;DHT22;7771;48.478;8.936;2023-02-01T08:45:24;6.80;99.90
15343;DHT22;7771;48.478;8.936;2023-02-01T08:47:51;6.80;99.90
15343;DHT22;7771;48.478;8.936;2023-02-01T08:50:18;6.80;99.90
15343;DHT22;7771;48.478;8.936;2023-02-01T08:52:44;6.90;99.90
15343;DHT22;7771;48.478;8.936;2023-02-01T08:55:11;6.90;99.90
15343;DHT22;7771;48.478;8.936;2023-02-01T08:57:38;6.90;99.90
15343;DHT22;7771;48.478;8.936;2023-02-01T09:00:05;6.90;99.90
15343;DHT22;7771;48.478;8.936;2023-02-01T09:02:32;6.90;99.90
15343;DHT22;7771;48.478;8.936;2023-02-01T09:04:58;6.90;99.90
15343;DHT22;7771;48.478;8.936;2023-02-01T09:07:25;6.90;99.90
15343;DHT22;7771;48.478;8.936;2023-02-01T09:09:52;6.90;99.90
15343;DHT22;7771;48.478;8.936;2023-02-01T09:12:18;6.90;99.90
15343;DHT22;7771;48.478;8.936;2023-02-01T09:14:45;6.90;99.90
15343;DHT22;7771;48.478;8.936;2023-02-01T09:17:11;6.90;99.90
15343;DHT22;7771;48.478;8.936;2023-02-01T09:19:38;6.90;99.90
15343;DHT22;7771;48.478;8.936;2023-02-01T09:22:05;6.90;99.90
15343;DHT22;7771;48.478;8.936;2023-02-01T09:24:31;6.90;99.90
15343;DHT22;7771;48.478;8.936;2023-02-01T09:26:59;6.90;99.90
15343;DHT22;7771;48.478;8.936;2023-02-01T09:29:25;7.00;99.90
15343;DHT22;7771;48.478;8.936;2023-02-01T09:31:52;7.00;99.90
15343;DHT22;7771;48.478;8.936;2023-02-01T09:34:18;7.00;99.90
15343;DHT22;7771;48.478;8.936;2023-02-01T09:36:46;6.90;99.90
15343;DHT22;7771;48.478;8.936;2023-02-01T09:39:13;7.00;99.90
15343;DHT22;7771;48.478;8.936;2023-02-01T09:41:56;7.00;99.90
15343;DHT22;7771;48.478;8.936;2023-02-01T09:44:47;7.00;99.90
15343;DHT22;7771;48.478;8.936;2023-02-01T09:47:14;6.90;99.90
15343;DHT22;7771;48.478;8.936;2023-02-01T09:49:45;6.90;99.90
15343;DHT22;7771;48.478;8.936;2023-02-01T09:52:07;7.00;99.90
15343;DHT22;7771;48.478;8.936;2023-02-01T09:54:41;7.10;99.90
15343;DHT22;7771;48.478;8.936;2023-02-01T09:57:11;7.20;99.90
15343;DHT22;7771;48.478;8.936;2023-02-01T09:59:43;7.40;99.90
15343;DHT22;7771;48.478;8.936;2023-02-01T10:02:27;7.50;99.90
15343;DHT22;7771;48.478;8.936;2023-02-01T10:04:55;7.60;99.90
15343;DHT22;7771;48.478;8.936;2023-02-01T10:07:41;7.70;99.90
15343;DHT22;7771;48.478;8.936;2023-02-01T10:10:08;7.80;99.90
15343;DHT22;7771;48.478;8.936;2023-02-01T10:12:48;7.90;99.90
15343;DHT22;7771;48.478;8.936;2023-02-01T10:15:24;8.00;99.90
15343;DHT22;7771;48.478;8.936;2023-02-01T10:17:53;8.20;99.90
15343;DHT22;7771;48.478;8.936;2023-02-01T10:20:25;8.30;99.90
15343;DHT22;7771;48.478;8.936;2023-02-01T10:23:02;8.40;99.90
15343;DHT22;7771;48.478;8.936;2023-02-01T10:25:36;8.50;99.90
15343;DHT22;7771;48.478;8.936;2023-02-01T10:28:00;8.70;99.90
15343;DHT22;7771;48.478;8.936;2023-02-01T10:30:30;8.80;99.90
15343;DHT22;7771;48.478;8.936;2023-02-01T10:32:56;8.90;99.90
15343;DHT22;7771;48.478;8.936;2023-02-01T10:35:24;9.00;99.90
15343;DHT22;7771;48.478;8.936;2023-02-01T10:37:49;9.00;99.90
15343;DHT22;7771;48.478;8.936;2023-02-01T10:40:17;9.10;99.90
15343;DHT22;7771;48.478;8.936;2023-02-01T10:42:43;9.10;99.90
15343;DHT22;7771;48.478;8.936;2023-02-01T10:45:12;9.10;99.90
15343;DHT22;7771;48.478;8.936;2023-02-01T10:47:36;9.00;99.90
15343;DHT22;7771;48.478;8.936;2023-02-01T10:50:19;9.00;99.90
15343;DHT22;7771;48.478;8.936;2023-02-01T10:52:50;9.00;99.90
15343;DHT22;7771;48.478;8.936;2023-02-01T10:55:26;9.00;99.90
15343;DHT22;7771;48.478;8.936;2023-02-01T10:57:57;9.00;99.90
15343;DHT22;7771;48.478;8.936;2023-02-01T11:00:24;9.00;99.90
15343;DHT22;7771;48.478;8.936;2023-02-01T11:02:50;9.00;99.90
15343;DHT22;7771;48.478;8.936;2023-02-01T11:05:17;9.00;99.90
15343;DHT22;7771;48.478;8.936;2023-02-01T11:07:48;9.00;99.90
15343;DHT22;7771;48.478;8.936;2023-02-01T11:10:36;9.00;99.90
15343;DHT22;7771;48.478;8.936;2023-02-01T11:13:02;8.80;99.90
15343;DHT22;7771;48.478;8.936;2023-02-01T11:15:29;8.80;99.90
15343;DHT22;7771;48.478;8.936;2023-02-01T11:17:57;8.70;99.90
15343;DHT22;7771;48.478;8.936;2023-02-01T11:20:34;8.60;99.90
15343;DHT22;7771;48.478;8.936;2023-02-01T11:22:54;8.60;99.90
15343;DHT22;7771;48.478;8.936;2023-02-01T11:25:19;8.60;99.90
15343;DHT22;7771;48.478;8.936;2023-02-01T11:27:48;8.60;99.90
15343;DHT22;7771;48.478;8.936;2023-02-01T11:30:19;8.40;99.90
15343;DHT22;7771;48.478;8.936;2023-02-01T11:32:46;8.40;99.90
15343;DHT22;7771;48.478;8.936;2023-02-01T11:35:11;8.30;99.90
15343;DHT22;7771;48.478;8.936;2023-02-01T11:37:39;8.30;99.90
15343;DHT22;7771;48.478;8.936;2023-02-01T11:40:23;8.30;99.90
15343;DHT22;7771;48.478;8.936;2023-02-01T11:42:54;8.30;99.90
15343;DHT22;7771;48.478;8.936;2023-02-01T11:45:24;8.30;99.90
15343;DHT22;7771;48.478;8.936;2023-02-01T11:47:48;8.30;99.90
15343;DHT22;7771;48.478;8.936;2023-02-01T11:50:17;8.30;99.90
15343;DHT22;7771;48.478;8.936;2023-02-01T11:53:08;8.30;99.90
15343;DHT22;7771;48.478;8.936;2023-02-01T11:55:39;8.20;99.90
15343;DHT22;7771;48.478;8.936;2023-02-01T11:58:16;8.20;99.90
15343;DHT22;7771;48.478;8.936;2023-02-01T12:00:52;8.20;99.90
15343;DHT22;7771;48.478;8.936;2023-02-01T12:05:50;8.10;99.90
15343;DHT22;7771;48.478;8.936;2023-02-01T12:08:23;8.10;99.90
15343;DHT22;7771;48.478;8.936;2023-02-01T12:11:02;8.10;99.90
15343;DHT22;7771;48.478;8.936;2023-02-01T12:16:25;8.00;99.90
15343;DHT22;7771;48.478;8.936;2023-02-01T12:19:02;8.00;99.90
15343;DHT22;7771;48.478;8.936;2023-02-01T12:22:07;7.90;99.90
15343;DHT22;7771;48.478;8.936;2023-02-01T12:24:28;7.90;99.90
15343;DHT22;7771;48.478;8.936;2023-02-01T12:26:57;7.80;99.90
15343;DHT22;7771;48.478;8.936;2023-02-01T12:29:34;7.80;99.90
15343;DHT22;7771;48.478;8.936;2023-02-01T12:32:06;7.80;99.90
15343;DHT22;7771;48.478;8.936;2023-02-01T12:34:35;7.80;99.90
15343;DHT22;7771;48.478;8.936;2023-02-01T12:37:06;8.20;99.90
15343;DHT22;7771;48.478;8.936;2023-02-01T12:39:32;7.80;99.90
15343;DHT22;7771;48.478;8.936;2023-02-01T12:42:01;7.80;99.90
15343;DHT22;7771;48.478;8.936;2023-02-01T12:44:27;7.80;99.90
15343;DHT22;7771;48.478;8.936;2023-02-01T12:46:52;7.80;99.90
15343;DHT22;7771;48.478;8.936;2023-02-01T12:49:22;7.80;99.90
15343;DHT22;7771;48.478;8.936;2023-02-01T12:51:48;7.80;99.90
15343;DHT22;7771;48.478;8.936;2023-02-01T12:54:34;7.80;99.90
15343;DHT22;7771;48.478;8.936;2023-02-01T12:57:00;7.80;99.90
15343;DHT22;7771;48.478;8.936;2023-02-01T12:59:35;7.90;99.90
15343;DHT22;7771;48.478;8.936;2023-02-01T13:01:56;7.90;99.90
15343;DHT22;7771;48.478;8.936;2023-02-01T13:04:26;7.90;99.90
15343;DHT22;7771;48.478;8.936;2023-02-01T13:06:53;8.00;99.90
15343;DHT22;7771;48.478;8.936;2023-02-01T13:09:23;8.00;99.90
15343;DHT22;7771;48.478;8.936;2023-02-01T13:11:49;7.90;99.90
15343;DHT22;7771;48.478;8.936;2023-02-01T13:14:28;7.90;99.90
15343;DHT22;7771;48.478;8.936;2023-02-01T13:19:40;7.90;99.90
15343;DHT22;7771;48.478;8.936;2023-02-01T13:22:16;7.80;99.90
15343;DHT22;7771;48.478;8.936;2023-02-01T13:24:42;7.80;99.90
15343;DHT22;7771;48.478;8.936;2023-02-01T13:27:11;7.80;99.90
15343;DHT22;7771;48.478;8.936;2023-02-01T13:29:37;7.80;99.90
15343;DHT22;7771;48.478;8.936;2023-02-01T13:32:18;7.80;99.90
15343;DHT22;7771;48.478;8.936;2023-02-01T13:37:45;7.80;99.90
15343;DHT22;7771;48.478;8.936;2023-02-01T13:40:17;7.70;99.90
15343;DHT22;7771;48.478;8.936;2023-02-01T13:42:55;7.70;99.90
15343;DHT22;7771;48.478;8.936;2023-02-01T13:45:27;7.70;99.90
15343;DHT22;7771;48.478;8.936;2023-02-01T13:47:52;7.70;99.90
15343;DHT22;7771;48.478;8.936;2023-02-01T13:50:23;7.70;99.90
15343;DHT22;7771;48.478;8.936;2023-02-01T13:52:54;7.70;99.90
15343;DHT22;7771;48.478;8.936;2023-02-01T13:55:30;7.70;99.90
15343;DHT22;7771;48.478;8.936;2023-02-01T13:58:21;7.70;99.90
15343;DHT22;7771;48.478;8.936;2023-02-01T14:00:49;7.70;99.90
15343;DHT22;7771;48.478;8.936;2023-02-01T14:06:02;7.70;99.90
15343;DHT22;7771;48.478;8.936;2023-02-01T14:08:46;7.70;99.90
15343;DHT22;7771;48.478;8.936;2023-02-01T14:13:53;7.60;99.90
15343;DHT22;7771;48.478;8.936;2023-02-01T14:16:19;7.60;99.90
15343;DHT22;7771;48.478;8.936;2023-02-01T14:18:49;7.60;99.90
15343;DHT22;7771;48.478;8.936;2023-02-01T14:21:21;7.70;99.90
15343;DHT22;7771;48.478;8.936;2023-02-01T14:23:47;7.70;99.90
15343;DHT22;7771;48.478;8.936;2023-02-01T14:26:17;7.70;99.90
15343;DHT22;7771;48.478;8.936;2023-02-01T14:28:46;7.70;99.90
15343;DHT22;7771;48.478;8.936;2023-02-01T14:31:15;7.70;99.90
15343;DHT22;7771;48.478;8.936;2023-02-01T14:33:41;7.80;99.90
15343;DHT22;7771;48.478;8.936;2023-02-01T14:36:09;7.70;99.90
15343;DHT22;7771;48.478;8.936;2023-02-01T14:38:36;7.80;99.90
15343;DHT22;7771;48.478;8.936;2023-02-01T14:41:23;7.70;99.90
15343;DHT22;7771;48.478;8.936;2023-02-01T14:43:49;7.70;99.90
15343;DHT22;7771;48.478;8.936;2023-02-01T14:46:16;7.70;99.90
15343;DHT22;7771;48.478;8.936;2023-02-01T14:48:44;7.70;99.90
15343;DHT22;7771;48.478;8.936;2023-02-01T14:51:11;7.70;99.90
15343;DHT22;7771;48.478;8.936;2023-02-01T14:53:37;7.70;99.90
15343;DHT22;7771;48.478;8.936;2023-02-01T14:56:08;7.70;99.90
15343;DHT22;7771;48.478;8.936;2023-02-01T14:58:41;7.70;99.90
15343;DHT22;7771;48.478;8.936;2023-02-01T15:01:21;7.80;99.90
15343;DHT22;7771;48.478;8.936;2023-02-01T15:04:09;7.80;99.90
15343;DHT22;7771;48.478;8.936;2023-02-01T15:06:39;7.70;99.90
15343;DHT22;7771;48.478;8.936;2023-02-01T15:09:11;7.70;99.90
15343;DHT22;7771;48.478;8.936;2023-02-01T15:14:14;7.70;99.90
15343;DHT22;7771;48.478;8.936;2023-02-01T15:16:42;7.70;99.90
15343;DHT22;7771;48.478;8.936;2023-02-01T15:19:14;7.70;99.90
15343;DHT22;7771;48.478;8.936;2023-02-01T15:21:44;7.70;99.90
15343;DHT22;7771;48.478;8.936;2023-02-01T15:24:13;7.70;99.90
15343;DHT22;7771;48.478;8.936;2023-02-01T15:26:39;7.70;99.90
15343;DHT22;7771;48.478;8.936;2023-02-01T15:29:09;7.70;99.90
15343;DHT22;7771;48.478;8.936;2023-02-01T15:31:36;7.70;99.90
15343;DHT22;7771;48.478;8.936;2023-02-01T15:34:02;7.70;99.90
15343;DHT22;7771;48.478;8.936;2023-02-01T15:36:30;7.70;99.90
15343;DHT22;7771;48.478;8.936;2023-02-01T15:39:11;7.80;99.90
15343;DHT22;7771;48.478;8.936;2023-02-01T15:41:37;7.80;99.90
15343;DHT22;7771;48.478;8.936;2023-02-01T15:44:09;7.80;99.90
15343;DHT22;7771;48.478;8.936;2023-02-01T15:46:32;7.70;99.90
15343;DHT22;7771;48.478;8.936;2023-02-01T15:48:59;7.80;99.90
15343;DHT22;7771;48.478;8.936;2023-02-01T15:51:28;7.80;99.90
15343;DHT22;7771;48.478;8.936;2023-02-01T15:53:57;7.80;99.90
15343;DHT22;7771;48.478;8.936;2023-02-01T15:56:27;7.80;99.90
15343;DHT22;7771;48.478;8.936;2023-02-01T15:58:55;7.70;99.90
15343;DHT22;7771;48.478;8.936;2023-02-01T16:01:20;7.60;99.90
15343;DHT22;7771;48.478;8.936;2023-02-01T16:03:47;7.70;99.90
15343;DHT22;7771;48.478;8.936;2023-02-01T16:06:30;7.70;99.90
15343;DHT22;7771;48.478;8.936;2023-02-01T16:09:11;7.70;99.90
15343;DHT22;7771;48.478;8.936;2023-02-01T16:11:48;7.60;99.90
15343;DHT22;7771;48.478;8.936;2023-02-01T16:14:15;7.60;99.90
15343;DHT22;7771;48.478;8.936;2023-02-01T16:16:43;7.60;99.90
15343;DHT22;7771;48.478;8.936;2023-02-01T16:19:10;7.60;99.90
15343;DHT22;7771;48.478;8.936;2023-02-01T16:21:37;7.60;99.90
15343;DHT22;7771;48.478;8.936;2023-02-01T16:24:05;7.50;99.90
15343;DHT22;7771;48.478;8.936;2023-02-01T16:26:32;7.50;99.90
15343;DHT22;7771;48.478;8.936;2023-02-01T16:29:01;7.40;99.90
15343;DHT22;7771;48.478;8.936;2023-02-01T16:31:28;7.40;99.90
15343;DHT22;7771;48.478;8.936;2023-02-01T16:33:54;7.30;99.90
15343;DHT22;7771;48.478;8.936;2023-02-01T16:36:21;7.30;99.90
15343;DHT22;7771;48.478;8.936;2023-02-01T16:38:47;7.30;99.90
15343;DHT22;7771;48.478;8.936;2023-02-01T16:41:17;7.30;99.90
15343;DHT22;7771;48.478;8.936;2023-02-01T16:43:43;7.20;99.90
15343;DHT22;7771;48.478;8.936;2023-02-01T16:46:13;7.20;99.90
15343;DHT22;7771;48.478;8.936;2023-02-01T16:48:40;7.20;99.90